sensor_id;sensor_type;location;lat;lon;timestamp;P1;durP1;ratioP1;P2;durP2;ratioP2
47251;SDS011;32991;51.374;11.586;2023-07-31T00:01:25;4.05;;;1.80;;
47251;SDS011;32991;51.374;11.586;2023-07-31T00:03:52;5.93;;;2.10;;
47251;SDS011;32991;51.374;11.586;2023-07-31T00:06:19;3.85;;;1.60;;
47251;SDS011;32991;51.374;11.586;2023-07-31T00:08:45;3.97;;;1.70;;
47251;SDS011;32991;51.374;11.586;2023-07-31T00:11:12;3.50;;;1.80;;
47251;SDS011;32991;51.374;11.586;2023-07-31T00:13:38;3.97;;;1.85;;
47251;SDS011;32991;51.374;11.586;2023-07-31T00:16:05;3.35;;;1.77;;
47251;SDS011;32991;51.374;11.586;2023-07-31T00:18:32;7.32;;;2.08;;
47251;SDS011;32991;51.374;11.586;2023-07-31T00:20:58;7.85;;;2.20;;
47251;SDS011;32991;51.374;11.586;2023-07-31T00:23:25;4.38;;;1.50;;
47251;SDS011;32991;51.374;11.586;2023-07-31T00:25:51;5.82;;;1.70;;
47251;SDS011;32991;51.374;11.586;2023-07-31T00:28:18;4.93;;;1.80;;
47251;SDS011;32991;51.374;11.586;2023-07-31T00:30:45;5.57;;;2.00;;
47251;SDS011;32991;51.374;11.586;2023-07-31T00:33:11;4.28;;;2.10;;
47251;SDS011;32991;51.374;11.586;2023-07-31T00:35:38;5.53;;;2.03;;
47251;SDS011;32991;51.374;11.586;2023-07-31T00:38:04;4.57;;;1.77;;
47251;SDS011;32991;51.374;11.586;2023-07-31T00:40:35;5.13;;;1.80;;
47251;SDS011;32991;51.374;11.586;2023-07-31T00:43:03;4.82;;;1.73;;
47251;SDS011;32991;51.374;11.586;2023-07-31T00:45:30;4.50;;;1.88;;
47251;SDS011;32991;51.374;11.586;2023-07-31T00:47:57;3.50;;;1.67;;
47251;SDS011;32991;51.374;11.586;2023-07-31T00:50:24;5.20;;;2.00;;
47251;SDS011;32991;51.374;11.586;2023-07-31T00:52:51;6.05;;;2.03;;
47251;SDS011;32991;51.374;11.586;2023-07-31T00:55:18;8.80;;;2.00;;
47251;SDS011;32991;51.374;11.586;2023-07-31T00:57:45;4.25;;;1.85;;
47251;SDS011;32991;51.374;11.586;2023-07-31T01:00:12;5.80;;;2.08;;
47251;SDS011;32991;51.374;11.586;2023-07-31T01:02:38;2.80;;;1.58;;
47251;SDS011;32991;51.374;11.586;2023-07-31T01:05:05;4.97;;;1.83;;
47251;SDS011;32991;51.374;11.586;2023-07-31T01:07:35;7.68;;;1.95;;
47251;SDS011;32991;51.374;11.586;2023-07-31T01:10:08;4.55;;;1.88;;
47251;SDS011;32991;51.374;11.586;2023-07-31T01:12:39;3.55;;;1.80;;
47251;SDS011;32991;51.374;11.586;2023-07-31T01:15:07;5.32;;;2.22;;
47251;SDS011;32991;51.374;11.586;2023-07-31T01:17:38;6.88;;;2.30;;
47251;SDS011;32991;51.374;11.586;2023-07-31T01:20:10;12.90;;;1.80;;
47251;SDS011;32991;51.374;11.586;2023-07-31T01:28:40;2.92;;;1.77;;
47251;SDS011;32991;51.374;11.586;2023-07-31T01:31:23;6.75;;;1.92;;
47251;SDS011;32991;51.374;11.586;2023-07-31T01:33:50;5.43;;;2.22;;
47251;SDS011;32991;51.374;11.586;2023-07-31T01:36:20;6.05;;;1.90;;
47251;SDS011;32991;51.374;11.586;2023-07-31T01:38:46;6.15;;;1.98;;
47251;SDS011;32991;51.374;11.586;2023-07-31T01:41:13;5.20;;;1.98;;
47251;SDS011;32991;51.374;11.586;2023-07-31T01:43:40;3.80;;;1.75;;
47251;SDS011;32991;51.374;11.586;2023-07-31T01:46:06;4.13;;;1.60;;
47251;SDS011;32991;51.374;11.586;2023-07-31T01:48:33;4.90;;;1.92;;
47251;SDS011;32991;51.374;11.586;2023-07-31T01:51:02;5.22;;;1.90;;
47251;SDS011;32991;51.374;11.586;2023-07-31T01:53:32;4.85;;;1.60;;
47251;SDS011;32991;51.374;11.586;2023-07-31T01:55:59;4.78;;;2.10;;
47251;SDS011;32991;51.374;11.586;2023-07-31T01:58:26;3.08;;;1.70;;
47251;SDS011;32991;51.374;11.586;2023-07-31T02:00:52;3.78;;;1.88;;
47251;SDS011;32991;51.374;11.586;2023-07-31T02:03:19;3.80;;;1.63;;
47251;SDS011;32991;51.374;11.586;2023-07-31T02:05:49;4.55;;;1.85;;
47251;SDS011;32991;51.374;11.586;2023-07-31T02:08:16;4.30;;;1.98;;
47251;SDS011;32991;51.374;11.586;2023-07-31T02:10:43;2.83;;;1.73;;
47251;SDS011;32991;51.374;11.586;2023-07-31T02:13:09;5.47;;;1.95;;
47251;SDS011;32991;51.374;11.586;2023-07-31T02:15:36;7.93;;;2.30;;
47251;SDS011;32991;51.374;11.586;2023-07-31T02:18:03;6.65;;;2.03;;
47251;SDS011;32991;51.374;11.586;2023-07-31T02:20:29;6.18;;;1.70;;
47251;SDS011;32991;51.374;11.586;2023-07-31T02:22:56;5.18;;;1.88;;
47251;SDS011;32991;51.374;11.586;2023-07-31T02:25:22;5.65;;;1.90;;
47251;SDS011;32991;51.374;11.586;2023-07-31T02:27:49;4.60;;;1.92;;
47251;SDS011;32991;51.374;11.586;2023-07-31T02:30:15;5.03;;;2.00;;
47251;SDS011;32991;51.374;11.586;2023-07-31T02:32:43;3.85;;;1.75;;
47251;SDS011;32991;51.374;11.586;2023-07-31T02:35:09;7.40;;;2.28;;
47251;SDS011;32991;51.374;11.586;2023-07-31T02:37:37;5.45;;;2.00;;
47251;SDS011;32991;51.374;11.586;2023-07-31T02:40:05;4.03;;;1.75;;
47251;SDS011;32991;51.374;11.586;2023-07-31T02:42:32;6.32;;;1.80;;
47251;SDS011;32991;51.374;11.586;2023-07-31T02:44:58;6.20;;;2.10;;
47251;SDS011;32991;51.374;11.586;2023-07-31T02:47:25;6.30;;;2.30;;
47251;SDS011;32991;51.374;11.586;2023-07-31T02:49:52;4.10;;;2.20;;
47251;SDS011;32991;51.374;11.586;2023-07-31T02:52:19;4.35;;;1.85;;
47251;SDS011;32991;51.374;11.586;2023-07-31T02:54:46;5.43;;;2.20;;
47251;SDS011;32991;51.374;11.586;2023-07-31T02:57:12;4.07;;;2.30;;
47251;SDS011;32991;51.374;11.586;2023-07-31T02:59:39;6.05;;;2.40;;
47251;SDS011;32991;51.374;11.586;2023-07-31T03:02:05;3.50;;;1.88;;
47251;SDS011;32991;51.374;11.586;2023-07-31T03:04:32;3.92;;;2.00;;
47251;SDS011;32991;51.374;11.586;2023-07-31T03:06:58;4.20;;;2.28;;
47251;SDS011;32991;51.374;11.586;2023-07-31T03:09:25;6.57;;;2.08;;
47251;SDS011;32991;51.374;11.586;2023-07-31T03:11:53;5.50;;;2.25;;
47251;SDS011;32991;51.374;11.586;2023-07-31T03:14:19;6.68;;;2.55;;
47251;SDS011;32991;51.374;11.586;2023-07-31T03:16:46;5.93;;;2.30;;
47251;SDS011;32991;51.374;11.586;2023-07-31T03:19:12;7.30;;;2.45;;
47251;SDS011;32991;51.374;11.586;2023-07-31T03:21:39;7.63;;;2.53;;
47251;SDS011;32991;51.374;11.586;2023-07-31T03:24:05;5.03;;;2.20;;
47251;SDS011;32991;51.374;11.586;2023-07-31T03:26:32;4.95;;;2.30;;
47251;SDS011;32991;51.374;11.586;2023-07-31T03:28:59;5.93;;;2.50;;
47251;SDS011;32991;51.374;11.586;2023-07-31T03:31:26;7.50;;;2.45;;
47251;SDS011;32991;51.374;11.586;2023-07-31T03:33:53;6.57;;;2.72;;
47251;SDS011;32991;51.374;11.586;2023-07-31T03:36:20;6.97;;;2.72;;
47251;SDS011;32991;51.374;11.586;2023-07-31T03:38:47;5.35;;;2.53;;
47251;SDS011;32991;51.374;11.586;2023-07-31T03:41:14;4.82;;;2.33;;
47251;SDS011;32991;51.374;11.586;2023-07-31T03:43:44;4.20;;;2.50;;
47251;SDS011;32991;51.374;11.586;2023-07-31T03:46:12;5.00;;;2.10;;
47251;SDS011;32991;51.374;11.586;2023-07-31T03:48:39;7.90;;;2.92;;
47251;SDS011;32991;51.374;11.586;2023-07-31T03:51:05;6.25;;;2.80;;
47251;SDS011;32991;51.374;11.586;2023-07-31T03:53:32;4.40;;;2.38;;
47251;SDS011;32991;51.374;11.586;2023-07-31T03:55:59;6.03;;;2.63;;
47251;SDS011;32991;51.374;11.586;2023-07-31T03:58:25;6.18;;;2.70;;
47251;SDS011;32991;51.374;11.586;2023-07-31T04:00:52;7.82;;;3.20;;
47251;SDS011;32991;51.374;11.586;2023-07-31T04:03:18;6.68;;;2.50;;
47251;SDS011;32991;51.374;11.586;2023-07-31T04:05:45;4.18;;;2.58;;
47251;SDS011;32991;51.374;11.586;2023-07-31T04:08:11;5.75;;;2.53;;
47251;SDS011;32991;51.374;11.586;2023-07-31T04:10:38;7.32;;;2.80;;
47251;SDS011;32991;51.374;11.586;2023-07-31T04:13:05;6.05;;;2.60;;
47251;SDS011;32991;51.374;11.586;2023-07-31T04:15:31;6.53;;;2.60;;
47251;SDS011;32991;51.374;11.586;2023-07-31T04:17:58;6.90;;;2.78;;
47251;SDS011;32991;51.374;11.586;2023-07-31T04:20:24;6.82;;;3.22;;
47251;SDS011;32991;51.374;11.586;2023-07-31T04:22:51;7.13;;;2.92;;
47251;SDS011;32991;51.374;11.586;2023-07-31T04:25:17;6.22;;;2.92;;
47251;SDS011;32991;51.374;11.586;2023-07-31T04:27:44;5.57;;;2.45;;
47251;SDS011;32991;51.374;11.586;2023-07-31T04:30:14;5.25;;;2.90;;
47251;SDS011;32991;51.374;11.586;2023-07-31T04:32:44;5.70;;;3.35;;
47251;SDS011;32991;51.374;11.586;2023-07-31T04:35:10;9.02;;;2.70;;
47251;SDS011;32991;51.374;11.586;2023-07-31T04:37:37;5.97;;;2.75;;
47251;SDS011;32991;51.374;11.586;2023-07-31T04:40:04;6.97;;;3.35;;
47251;SDS011;32991;51.374;11.586;2023-07-31T04:42:31;4.80;;;2.53;;
47251;SDS011;32991;51.374;11.586;2023-07-31T04:44:58;7.68;;;3.03;;
47251;SDS011;32991;51.374;11.586;2023-07-31T04:47:25;6.55;;;2.83;;
47251;SDS011;32991;51.374;11.586;2023-07-31T04:49:51;5.15;;;2.78;;
47251;SDS011;32991;51.374;11.586;2023-07-31T04:52:18;5.10;;;2.75;;
47251;SDS011;32991;51.374;11.586;2023-07-31T04:54:44;6.82;;;3.00;;
47251;SDS011;32991;51.374;11.586;2023-07-31T04:57:11;4.75;;;2.90;;
47251;SDS011;32991;51.374;11.586;2023-07-31T04:59:38;6.45;;;2.92;;
47251;SDS011;32991;51.374;11.586;2023-07-31T05:02:04;5.82;;;2.92;;
47251;SDS011;32991;51.374;11.586;2023-07-31T05:04:34;5.78;;;3.10;;
47251;SDS011;32991;51.374;11.586;2023-07-31T05:07:01;7.45;;;3.17;;
47251;SDS011;32991;51.374;11.586;2023-07-31T05:09:28;7.60;;;3.10;;
47251;SDS011;32991;51.374;11.586;2023-07-31T05:11:54;6.50;;;3.03;;
47251;SDS011;32991;51.374;11.586;2023-07-31T05:14:21;6.07;;;2.67;;
47251;SDS011;32991;51.374;11.586;2023-07-31T05:16:47;7.95;;;3.33;;
47251;SDS011;32991;51.374;11.586;2023-07-31T05:19:14;5.95;;;3.15;;
47251;SDS011;32991;51.374;11.586;2023-07-31T05:21:41;6.43;;;3.30;;
47251;SDS011;32991;51.374;11.586;2023-07-31T05:24:07;5.07;;;2.88;;
47251;SDS011;32991;51.374;11.586;2023-07-31T05:26:34;4.75;;;2.70;;
47251;SDS011;32991;51.374;11.586;2023-07-31T05:29:00;5.80;;;2.42;;
47251;SDS011;32991;51.374;11.586;2023-07-31T05:31:27;4.30;;;2.58;;
47251;SDS011;32991;51.374;11.586;2023-07-31T05:33:54;4.95;;;2.50;;
47251;SDS011;32991;51.374;11.586;2023-07-31T05:36:21;5.40;;;2.70;;
47251;SDS011;32991;51.374;11.586;2023-07-31T05:38:48;5.82;;;3.08;;
47251;SDS011;32991;51.374;11.586;2023-07-31T05:41:14;6.97;;;2.63;;
47251;SDS011;32991;51.374;11.586;2023-07-31T05:43:41;7.10;;;3.05;;
47251;SDS011;32991;51.374;11.586;2023-07-31T05:46:09;7.65;;;2.80;;
47251;SDS011;32991;51.374;11.586;2023-07-31T05:48:35;5.38;;;2.60;;
47251;SDS011;32991;51.374;11.586;2023-07-31T05:51:02;7.07;;;3.00;;
47251;SDS011;32991;51.374;11.586;2023-07-31T05:53:29;7.03;;;2.80;;
47251;SDS011;32991;51.374;11.586;2023-07-31T05:55:55;4.80;;;2.40;;
47251;SDS011;32991;51.374;11.586;2023-07-31T05:58:22;7.32;;;3.00;;
47251;SDS011;32991;51.374;11.586;2023-07-31T06:00:49;4.95;;;2.47;;
47251;SDS011;32991;51.374;11.586;2023-07-31T06:03:15;4.10;;;2.35;;
47251;SDS011;32991;51.374;11.586;2023-07-31T06:05:42;6.03;;;2.72;;
47251;SDS011;32991;51.374;11.586;2023-07-31T06:08:09;5.68;;;2.50;;
47251;SDS011;32991;51.374;11.586;2023-07-31T06:10:35;5.20;;;2.63;;
47251;SDS011;32991;51.374;11.586;2023-07-31T06:13:02;5.20;;;2.17;;
47251;SDS011;32991;51.374;11.586;2023-07-31T06:15:29;6.15;;;2.70;;
47251;SDS011;32991;51.374;11.586;2023-07-31T06:17:55;4.13;;;2.47;;
47251;SDS011;32991;51.374;11.586;2023-07-31T06:20:22;4.70;;;2.50;;
47251;SDS011;32991;51.374;11.586;2023-07-31T06:22:51;5.05;;;2.30;;
47251;SDS011;32991;51.374;11.586;2023-07-31T06:25:18;3.45;;;2.20;;
47251;SDS011;32991;51.374;11.586;2023-07-31T06:27:45;7.07;;;2.42;;
47251;SDS011;32991;51.374;11.586;2023-07-31T06:30:11;6.53;;;2.83;;
47251;SDS011;32991;51.374;11.586;2023-07-31T06:32:38;5.80;;;2.70;;
47251;SDS011;32991;51.374;11.586;2023-07-31T06:35:06;6.20;;;3.00;;
47251;SDS011;32991;51.374;11.586;2023-07-31T06:37:33;3.75;;;2.30;;
47251;SDS011;32991;51.374;11.586;2023-07-31T06:40:03;5.68;;;2.40;;
47251;SDS011;32991;51.374;11.586;2023-07-31T06:42:32;6.13;;;2.72;;
47251;SDS011;32991;51.374;11.586;2023-07-31T06:44:58;5.32;;;2.53;;
47251;SDS011;32991;51.374;11.586;2023-07-31T06:47:25;7.90;;;2.83;;
47251;SDS011;32991;51.374;11.586;2023-07-31T06:49:51;5.32;;;2.65;;
47251;SDS011;32991;51.374;11.586;2023-07-31T06:52:18;4.60;;;2.70;;
47251;SDS011;32991;51.374;11.586;2023-07-31T06:54:56;4.20;;;2.22;;
47251;SDS011;32991;51.374;11.586;2023-07-31T06:57:27;5.32;;;2.20;;
47251;SDS011;32991;51.374;11.586;2023-07-31T06:59:53;4.07;;;2.33;;
47251;SDS011;32991;51.374;11.586;2023-07-31T07:02:20;6.38;;;2.50;;
47251;SDS011;32991;51.374;11.586;2023-07-31T07:04:46;6.30;;;2.53;;
47251;SDS011;32991;51.374;11.586;2023-07-31T07:07:13;5.00;;;2.45;;
47251;SDS011;32991;51.374;11.586;2023-07-31T07:09:40;3.50;;;2.42;;
47251;SDS011;32991;51.374;11.586;2023-07-31T07:12:06;4.95;;;2.15;;
47251;SDS011;32991;51.374;11.586;2023-07-31T07:14:33;5.97;;;2.80;;
47251;SDS011;32991;51.374;11.586;2023-07-31T07:17:00;2.88;;;2.05;;
47251;SDS011;32991;51.374;11.586;2023-07-31T07:19:27;4.55;;;2.05;;
47251;SDS011;32991;51.374;11.586;2023-07-31T07:21:53;5.35;;;2.72;;
47251;SDS011;32991;51.374;11.586;2023-07-31T07:24:20;5.38;;;2.40;;
47251;SDS011;32991;51.374;11.586;2023-07-31T07:26:47;5.75;;;2.28;;
47251;SDS011;32991;51.374;11.586;2023-07-31T07:29:13;3.17;;;2.22;;
47251;SDS011;32991;51.374;11.586;2023-07-31T07:31:40;5.68;;;2.30;;
47251;SDS011;32991;51.374;11.586;2023-07-31T07:34:06;4.47;;;2.45;;
47251;SDS011;32991;51.374;11.586;2023-07-31T07:36:33;4.47;;;2.30;;
47251;SDS011;32991;51.374;11.586;2023-07-31T07:39:00;5.30;;;1.98;;
47251;SDS011;32991;51.374;11.586;2023-07-31T07:41:26;4.60;;;2.70;;
47251;SDS011;32991;51.374;11.586;2023-07-31T07:43:53;4.20;;;2.72;;
47251;SDS011;32991;51.374;11.586;2023-07-31T07:46:19;5.25;;;2.10;;
47251;SDS011;32991;51.374;11.586;2023-07-31T07:48:46;7.95;;;2.33;;
47251;SDS011;32991;51.374;11.586;2023-07-31T07:51:12;7.07;;;2.53;;
47251;SDS011;32991;51.374;11.586;2023-07-31T07:53:39;5.30;;;2.40;;
47251;SDS011;32991;51.374;11.586;2023-07-31T07:56:05;5.57;;;2.60;;
47251;SDS011;32991;51.374;11.586;2023-07-31T07:58:32;5.13;;;2.88;;
47251;SDS011;32991;51.374;11.586;2023-07-31T08:00:59;5.35;;;2.42;;
47251;SDS011;32991;51.374;11.586;2023-07-31T08:03:25;5.70;;;2.42;;
47251;SDS011;32991;51.374;11.586;2023-07-31T08:05:52;5.43;;;2.67;;
47251;SDS011;32991;51.374;11.586;2023-07-31T08:08:24;3.88;;;2.28;;
47251;SDS011;32991;51.374;11.586;2023-07-31T08:10:50;3.92;;;2.35;;
47251;SDS011;32991;51.374;11.586;2023-07-31T08:13:17;3.45;;;2.60;;
47251;SDS011;32991;51.374;11.586;2023-07-31T08:15:44;5.40;;;2.55;;
47251;SDS011;32991;51.374;11.586;2023-07-31T08:18:10;6.82;;;2.75;;
47251;SDS011;32991;51.374;11.586;2023-07-31T08:20:38;5.22;;;2.35;;
47251;SDS011;32991;51.374;11.586;2023-07-31T08:23:04;4.65;;;2.45;;
47251;SDS011;32991;51.374;11.586;2023-07-31T08:25:34;4.85;;;2.67;;
47251;SDS011;32991;51.374;11.586;2023-07-31T08:28:01;4.97;;;2.50;;
47251;SDS011;32991;51.374;11.586;2023-07-31T08:30:28;5.90;;;2.70;;
47251;SDS011;32991;51.374;11.586;2023-07-31T08:32:55;6.53;;;2.63;;
47251;SDS011;32991;51.374;11.586;2023-07-31T08:35:23;5.82;;;2.40;;
47251;SDS011;32991;51.374;11.586;2023-07-31T08:37:50;3.83;;;2.63;;
47251;SDS011;32991;51.374;11.586;2023-07-31T08:40:17;5.38;;;2.63;;
47251;SDS011;32991;51.374;11.586;2023-07-31T08:42:44;3.92;;;2.33;;
47251;SDS011;32991;51.374;11.586;2023-07-31T08:45:15;4.18;;;2.63;;
47251;SDS011;32991;51.374;11.586;2023-07-31T08:47:46;6.35;;;2.90;;
47251;SDS011;32991;51.374;11.586;2023-07-31T08:50:16;5.53;;;2.47;;
47251;SDS011;32991;51.374;11.586;2023-07-31T08:52:45;5.35;;;2.40;;
47251;SDS011;32991;51.374;11.586;2023-07-31T08:55:12;4.30;;;2.42;;
47251;SDS011;32991;51.374;11.586;2023-07-31T08:57:39;4.38;;;2.67;;
47251;SDS011;32991;51.374;11.586;2023-07-31T09:00:07;4.00;;;2.50;;
47251;SDS011;32991;51.374;11.586;2023-07-31T09:05:23;6.85;;;2.53;;
47251;SDS011;32991;51.374;11.586;2023-07-31T09:07:50;6.88;;;3.03;;
47251;SDS011;32991;51.374;11.586;2023-07-31T09:10:17;3.72;;;2.70;;
47251;SDS011;32991;51.374;11.586;2023-07-31T09:12:44;3.80;;;2.58;;
47251;SDS011;32991;51.374;11.586;2023-07-31T09:15:11;6.43;;;3.15;;
47251;SDS011;32991;51.374;11.586;2023-07-31T09:18:00;6.25;;;3.00;;
47251;SDS011;32991;51.374;11.586;2023-07-31T09:20:28;4.88;;;2.80;;
47251;SDS011;32991;51.374;11.586;2023-07-31T09:22:55;7.28;;;3.30;;
47251;SDS011;32991;51.374;11.586;2023-07-31T09:25:25;5.93;;;2.92;;
47251;SDS011;32991;51.374;11.586;2023-07-31T09:28:02;5.72;;;2.63;;
47251;SDS011;32991;51.374;11.586;2023-07-31T09:30:30;3.92;;;2.58;;
47251;SDS011;32991;51.374;11.586;2023-07-31T09:33:01;4.88;;;2.40;;
47251;SDS011;32991;51.374;11.586;2023-07-31T09:35:30;3.70;;;2.17;;
47251;SDS011;32991;51.374;11.586;2023-07-31T09:37:58;3.45;;;2.85;;
47251;SDS011;32991;51.374;11.586;2023-07-31T09:40:46;5.32;;;2.95;;
47251;SDS011;32991;51.374;11.586;2023-07-31T09:43:19;3.67;;;2.53;;
47251;SDS011;32991;51.374;11.586;2023-07-31T09:45:46;4.05;;;2.50;;
47251;SDS011;32991;51.374;11.586;2023-07-31T09:48:15;5.15;;;2.63;;
47251;SDS011;32991;51.374;11.586;2023-07-31T09:50:45;3.65;;;2.53;;
47251;SDS011;32991;51.374;11.586;2023-07-31T09:53:15;4.38;;;2.60;;
47251;SDS011;32991;51.374;11.586;2023-07-31T09:55:43;5.35;;;2.63;;
47251;SDS011;32991;51.374;11.586;2023-07-31T09:58:10;5.53;;;3.00;;
47251;SDS011;32991;51.374;11.586;2023-07-31T10:00:38;4.07;;;2.92;;
47251;SDS011;32991;51.374;11.586;2023-07-31T10:03:09;7.03;;;2.85;;
47251;SDS011;32991;51.374;11.586;2023-07-31T10:05:42;4.82;;;2.58;;
47251;SDS011;32991;51.374;11.586;2023-07-31T10:08:13;4.30;;;2.53;;
47251;SDS011;32991;51.374;11.586;2023-07-31T10:10:43;4.25;;;2.90;;
47251;SDS011;32991;51.374;11.586;2023-07-31T10:13:11;5.03;;;2.90;;
47251;SDS011;32991;51.374;11.586;2023-07-31T10:15:39;6.68;;;2.92;;
47251;SDS011;32991;51.374;11.586;2023-07-31T10:18:08;5.97;;;2.88;;
47251;SDS011;32991;51.374;11.586;2023-07-31T10:20:36;4.82;;;2.80;;
47251;SDS011;32991;51.374;11.586;2023-07-31T10:23:03;4.78;;;2.58;;
47251;SDS011;32991;51.374;11.586;2023-07-31T10:25:30;6.93;;;2.92;;
47251;SDS011;32991;51.374;11.586;2023-07-31T10:27:57;5.35;;;2.70;;
47251;SDS011;32991;51.374;11.586;2023-07-31T10:30:24;5.50;;;2.47;;
47251;SDS011;32991;51.374;11.586;2023-07-31T10:32:53;3.70;;;2.70;;
47251;SDS011;32991;51.374;11.586;2023-07-31T10:35:20;4.95;;;2.72;;
47251;SDS011;32991;51.374;11.586;2023-07-31T10:37:50;4.30;;;2.63;;
47251;SDS011;32991;51.374;11.586;2023-07-31T10:40:25;4.68;;;2.80;;
47251;SDS011;32991;51.374;11.586;2023-07-31T10:42:54;4.47;;;2.90;;
47251;SDS011;32991;51.374;11.586;2023-07-31T10:48:00;4.25;;;3.03;;
47251;SDS011;32991;51.374;11.586;2023-07-31T10:50:30;4.80;;;2.55;;
47251;SDS011;32991;51.374;11.586;2023-07-31T10:53:25;3.22;;;2.30;;
47251;SDS011;32991;51.374;11.586;2023-07-31T10:55:52;4.97;;;2.90;;
47251;SDS011;32991;51.374;11.586;2023-07-31T10:58:19;4.60;;;2.65;;
47251;SDS011;32991;51.374;11.586;2023-07-31T11:00:47;5.13;;;2.95;;
47251;SDS011;32991;51.374;11.586;2023-07-31T11:03:17;5.90;;;2.83;;
47251;SDS011;32991;51.374;11.586;2023-07-31T11:10:42;5.95;;;2.78;;
47251;SDS011;32991;51.374;11.586;2023-07-31T11:13:11;3.60;;;3.00;;
47251;SDS011;32991;51.374;11.586;2023-07-31T11:15:38;4.03;;;2.65;;
47251;SDS011;32991;51.374;11.586;2023-07-31T11:18:05;7.63;;;2.97;;
47251;SDS011;32991;51.374;11.586;2023-07-31T11:20:32;4.13;;;2.70;;
47251;SDS011;32991;51.374;11.586;2023-07-31T11:23:00;4.60;;;2.92;;
47251;SDS011;32991;51.374;11.586;2023-07-31T11:25:32;7.50;;;3.17;;
47251;SDS011;32991;51.374;11.586;2023-07-31T11:28:03;4.65;;;2.83;;
47251;SDS011;32991;51.374;11.586;2023-07-31T11:30:34;4.80;;;3.05;;
47251;SDS011;32991;51.374;11.586;2023-07-31T11:33:02;5.82;;;2.63;;
47251;SDS011;32991;51.374;11.586;2023-07-31T11:35:32;3.30;;;2.80;;
47251;SDS011;32991;51.374;11.586;2023-07-31T11:38:00;4.70;;;2.88;;
47251;SDS011;32991;51.374;11.586;2023-07-31T11:40:27;5.78;;;2.88;;
47251;SDS011;32991;51.374;11.586;2023-07-31T11:42:58;3.95;;;2.88;;
47251;SDS011;32991;51.374;11.586;2023-07-31T11:45:31;6.20;;;3.20;;
47251;SDS011;32991;51.374;11.586;2023-07-31T11:47:58;5.03;;;3.00;;
47251;SDS011;32991;51.374;11.586;2023-07-31T11:50:25;6.10;;;3.38;;
47251;SDS011;32991;51.374;11.586;2023-07-31T11:52:54;6.20;;;3.30;;
47251;SDS011;32991;51.374;11.586;2023-07-31T11:55:23;5.15;;;3.35;;
47251;SDS011;32991;51.374;11.586;2023-07-31T11:57:50;4.43;;;2.85;;
47251;SDS011;32991;51.374;11.586;2023-07-31T12:00:17;5.47;;;3.13;;
47251;SDS011;32991;51.374;11.586;2023-07-31T12:02:44;5.28;;;3.05;;
47251;SDS011;32991;51.374;11.586;2023-07-31T12:05:14;4.97;;;2.90;;
47251;SDS011;32991;51.374;11.586;2023-07-31T12:07:51;6.88;;;3.65;;
47251;SDS011;32991;51.374;11.586;2023-07-31T12:15:34;4.53;;;2.78;;
47251;SDS011;32991;51.374;11.586;2023-07-31T12:18:09;4.22;;;2.90;;
47251;SDS011;32991;51.374;11.586;2023-07-31T12:20:48;4.32;;;3.00;;
47251;SDS011;32991;51.374;11.586;2023-07-31T12:23:23;6.45;;;3.40;;
47251;SDS011;32991;51.374;11.586;2023-07-31T12:31:05;4.55;;;2.83;;
47251;SDS011;32991;51.374;11.586;2023-07-31T12:33:32;5.07;;;2.80;;
47251;SDS011;32991;51.374;11.586;2023-07-31T12:36:01;4.28;;;2.83;;
47251;SDS011;32991;51.374;11.586;2023-07-31T12:38:29;6.00;;;2.67;;
47251;SDS011;32991;51.374;11.586;2023-07-31T12:40:56;3.55;;;2.53;;
47251;SDS011;32991;51.374;11.586;2023-07-31T12:43:22;4.05;;;2.70;;
47251;SDS011;32991;51.374;11.586;2023-07-31T12:45:49;4.75;;;3.35;;
47251;SDS011;32991;51.374;11.586;2023-07-31T12:48:16;3.65;;;2.20;;
47251;SDS011;32991;51.374;11.586;2023-07-31T12:50:42;4.00;;;3.00;;
47251;SDS011;32991;51.374;11.586;2023-07-31T12:53:09;4.45;;;2.45;;
47251;SDS011;32991;51.374;11.586;2023-07-31T12:55:35;3.85;;;2.65;;
47251;SDS011;32991;51.374;11.586;2023-07-31T12:58:03;4.97;;;3.17;;
47251;SDS011;32991;51.374;11.586;2023-07-31T13:00:30;5.28;;;2.35;;
47251;SDS011;32991;51.374;11.586;2023-07-31T13:02:56;6.43;;;3.00;;
47251;SDS011;32991;51.374;11.586;2023-07-31T13:05:23;3.95;;;2.58;;
47251;SDS011;32991;51.374;11.586;2023-07-31T13:07:50;3.75;;;2.80;;
47251;SDS011;32991;51.374;11.586;2023-07-31T13:10:18;6.32;;;2.83;;
47251;SDS011;32991;51.374;11.586;2023-07-31T13:12:45;4.45;;;2.65;;
47251;SDS011;32991;51.374;11.586;2023-07-31T13:15:12;5.50;;;2.60;;
47251;SDS011;32991;51.374;11.586;2023-07-31T13:17:39;3.42;;;2.42;;
47251;SDS011;32991;51.374;11.586;2023-07-31T13:20:05;4.75;;;2.67;;
47251;SDS011;32991;51.374;11.586;2023-07-31T13:22:32;4.88;;;2.42;;
47251;SDS011;32991;51.374;11.586;2023-07-31T13:24:59;3.90;;;2.90;;
47251;SDS011;32991;51.374;11.586;2023-07-31T13:27:25;3.63;;;2.30;;
47251;SDS011;32991;51.374;11.586;2023-07-31T13:29:52;4.28;;;2.50;;
47251;SDS011;32991;51.374;11.586;2023-07-31T13:32:19;4.50;;;2.38;;
47251;SDS011;32991;51.374;11.586;2023-07-31T13:34:47;3.67;;;2.20;;
47251;SDS011;32991;51.374;11.586;2023-07-31T13:37:14;3.58;;;1.75;;
47251;SDS011;32991;51.374;11.586;2023-07-31T13:39:41;4.15;;;1.90;;
47251;SDS011;32991;51.374;11.586;2023-07-31T13:42:08;2.85;;;1.58;;
47251;SDS011;32991;51.374;11.586;2023-07-31T13:44:38;3.75;;;1.92;;
47251;SDS011;32991;51.374;11.586;2023-07-31T13:47:05;2.42;;;1.92;;
47251;SDS011;32991;51.374;11.586;2023-07-31T13:49:32;1.95;;;1.50;;
47251;SDS011;32991;51.374;11.586;2023-07-31T13:52:00;3.17;;;1.90;;
47251;SDS011;32991;51.374;11.586;2023-07-31T13:54:26;4.32;;;2.00;;
47251;SDS011;32991;51.374;11.586;2023-07-31T13:56:56;3.22;;;2.00;;
47251;SDS011;32991;51.374;11.586;2023-07-31T13:59:23;3.33;;;1.98;;
47251;SDS011;32991;51.374;11.586;2023-07-31T14:01:49;3.75;;;1.98;;
47251;SDS011;32991;51.374;11.586;2023-07-31T14:04:16;2.75;;;1.92;;
47251;SDS011;32991;51.374;11.586;2023-07-31T14:06:44;3.17;;;2.30;;
47251;SDS011;32991;51.374;11.586;2023-07-31T14:09:10;2.90;;;2.30;;
47251;SDS011;32991;51.374;11.586;2023-07-31T14:11:37;3.47;;;2.10;;
47251;SDS011;32991;51.374;11.586;2023-07-31T14:14:08;4.03;;;2.25;;
47251;SDS011;32991;51.374;11.586;2023-07-31T14:16:38;3.72;;;2.17;;
47251;SDS011;32991;51.374;11.586;2023-07-31T14:19:05;4.15;;;2.08;;
47251;SDS011;32991;51.374;11.586;2023-07-31T14:21:34;3.05;;;2.22;;
47251;SDS011;32991;51.374;11.586;2023-07-31T14:24:01;3.13;;;2.30;;
47251;SDS011;32991;51.374;11.586;2023-07-31T14:26:27;6.38;;;2.40;;
47251;SDS011;32991;51.374;11.586;2023-07-31T14:28:54;4.70;;;2.88;;
47251;SDS011;32991;51.374;11.586;2023-07-31T14:31:20;4.72;;;2.28;;
47251;SDS011;32991;51.374;11.586;2023-07-31T14:33:47;4.68;;;2.47;;
47251;SDS011;32991;51.374;11.586;2023-07-31T14:36:14;3.85;;;2.50;;
47251;SDS011;32991;51.374;11.586;2023-07-31T14:38:40;3.60;;;2.78;;
47251;SDS011;32991;51.374;11.586;2023-07-31T14:41:07;4.50;;;2.60;;
47251;SDS011;32991;51.374;11.586;2023-07-31T14:43:34;4.50;;;2.67;;
47251;SDS011;32991;51.374;11.586;2023-07-31T14:46:00;6.25;;;2.70;;
47251;SDS011;32991;51.374;11.586;2023-07-31T14:48:27;5.93;;;2.60;;
47251;SDS011;32991;51.374;11.586;2023-07-31T14:50:55;4.65;;;2.40;;
47251;SDS011;32991;51.374;11.586;2023-07-31T14:53:22;5.60;;;3.00;;
47251;SDS011;32991;51.374;11.586;2023-07-31T14:55:48;7.85;;;2.97;;
47251;SDS011;32991;51.374;11.586;2023-07-31T14:58:15;5.03;;;2.90;;
47251;SDS011;32991;51.374;11.586;2023-07-31T15:00:43;5.18;;;2.90;;
47251;SDS011;32991;51.374;11.586;2023-07-31T15:03:10;3.78;;;2.70;;